To NAV CANADA Home Page Login to a new session Search on AWWS site Feedback and Comments Disclaimer Vers la page française équivalente Tips FAQ What's new on the site To the Forecasts and Observations / NOTAM section To "File a Flight Plan" website Publications and other links Update of the User's profile FIC Telephone Numbers My Weather Data Folder Route Weather Data Regional Weather Data Local Weather Data To the Forecasts and Observations / NOTAM section
Request Generated 10/18/2017 at 03:45:00 UTC . Weather information available at that time is displayed.

METAR/TAF

GRANDE PRAIRIE/AB    

METAR CYQU 180300Z 24013KT 25SM FEW050 SCT120 01/M01 A2965 RMK SC1AC2
SLP068=
METAR CYQU 180200Z 23008KT 25SM FEW042 BKN072 BKN270 02/00 A2962 RMK
SC1AC4CI1 SLP058=
METAR CYQU 180100Z 26008KT 25SM SCT042 BKN120 BKN260 03/M00 A2960 RMK
SC3AC2CI1 SLP050=

TAF CYQU 180038Z 1801/1813 28010KT P6SM SCT050 BKN120
FM180500 25010KT P6SM FEW120
RMK NXT FCST BY 180700Z=
Your time UTC time
Weather data provided by Environment Canada and NAV CANADA